sensor_id;sensor_type;location;lat;lon;timestamp;temperature;humidity
46720;DHT22;32452;51.382;-0.002;2023-07-30T00:00:51;17.30;84.40
46720;DHT22;32452;51.382;-0.002;2023-07-30T00:03:36;17.30;84.50
46720;DHT22;32452;51.382;-0.002;2023-07-30T00:06:22;17.20;84.50
46720;DHT22;32452;51.382;-0.002;2023-07-30T00:09:08;17.20;84.60
46720;DHT22;32452;51.382;-0.002;2023-07-30T00:11:53;17.20;84.80
46720;DHT22;32452;51.382;-0.002;2023-07-30T00:14:39;17.20;84.90
46720;DHT22;32452;51.382;-0.002;2023-07-30T00:17:24;17.10;85.20
46720;DHT22;32452;51.382;-0.002;2023-07-30T00:20:10;17.10;85.40
46720;DHT22;32452;51.382;-0.002;2023-07-30T00:22:55;17.10;85.70
46720;DHT22;32452;51.382;-0.002;2023-07-30T00:25:41;17.10;86.10
46720;DHT22;32452;51.382;-0.002;2023-07-30T00:28:27;17.20;86.40
46720;DHT22;32452;51.382;-0.002;2023-07-30T00:31:12;17.20;86.70
46720;DHT22;32452;51.382;-0.002;2023-07-30T00:33:58;17.20;86.90
46720;DHT22;32452;51.382;-0.002;2023-07-30T00:36:44;17.20;87.00
46720;DHT22;32452;51.382;-0.002;2023-07-30T00:39:29;17.30;87.20
46720;DHT22;32452;51.382;-0.002;2023-07-30T00:42:15;17.30;87.30
46720;DHT22;32452;51.382;-0.002;2023-07-30T00:45:00;17.30;87.50
46720;DHT22;32452;51.382;-0.002;2023-07-30T00:47:46;17.30;87.60
46720;DHT22;32452;51.382;-0.002;2023-07-30T00:50:33;17.30;87.90
46720;DHT22;32452;51.382;-0.002;2023-07-30T00:53:19;17.40;88.10
46720;DHT22;32452;51.382;-0.002;2023-07-30T00:56:07;17.40;88.30
46720;DHT22;32452;51.382;-0.002;2023-07-30T00:58:53;17.30;88.50
46720;DHT22;32452;51.382;-0.002;2023-07-30T01:01:41;17.30;88.70
46720;DHT22;32452;51.382;-0.002;2023-07-30T01:04:27;17.30;89.00
46720;DHT22;32452;51.382;-0.002;2023-07-30T01:07:13;17.30;89.10
46720;DHT22;32452;51.382;-0.002;2023-07-30T01:09:59;17.30;89.20
46720;DHT22;32452;51.382;-0.002;2023-07-30T01:12:45;17.30;89.40
46720;DHT22;32452;51.382;-0.002;2023-07-30T01:15:31;17.30;89.50
46720;DHT22;32452;51.382;-0.002;2023-07-30T01:18:17;17.30;89.70
46720;DHT22;32452;51.382;-0.002;2023-07-30T01:21:03;17.30;89.90
46720;DHT22;32452;51.382;-0.002;2023-07-30T01:23:48;17.30;90.00
46720;DHT22;32452;51.382;-0.002;2023-07-30T01:26:39;17.30;90.10
46720;DHT22;32452;51.382;-0.002;2023-07-30T01:29:29;17.30;90.20
46720;DHT22;32452;51.382;-0.002;2023-07-30T01:32:20;17.30;90.30
46720;DHT22;32452;51.382;-0.002;2023-07-30T01:35:09;17.30;90.30
46720;DHT22;32452;51.382;-0.002;2023-07-30T01:37:55;17.30;90.40
46720;DHT22;32452;51.382;-0.002;2023-07-30T01:40:42;17.20;90.50
46720;DHT22;32452;51.382;-0.002;2023-07-30T01:43:27;17.20;90.50
46720;DHT22;32452;51.382;-0.002;2023-07-30T01:46:13;17.10;90.60
46720;DHT22;32452;51.382;-0.002;2023-07-30T01:48:58;17.10;90.70
46720;DHT22;32452;51.382;-0.002;2023-07-30T01:51:44;17.00;90.80
46720;DHT22;32452;51.382;-0.002;2023-07-30T01:54:30;16.90;90.90
46720;DHT22;32452;51.382;-0.002;2023-07-30T01:57:15;16.90;91.00
46720;DHT22;32452;51.382;-0.002;2023-07-30T02:00:01;16.90;91.00
46720;DHT22;32452;51.382;-0.002;2023-07-30T02:02:47;16.90;91.00
46720;DHT22;32452;51.382;-0.002;2023-07-30T02:05:33;16.80;91.00
46720;DHT22;32452;51.382;-0.002;2023-07-30T02:08:19;16.80;91.10
46720;DHT22;32452;51.382;-0.002;2023-07-30T02:11:04;16.80;91.10
46720;DHT22;32452;51.382;-0.002;2023-07-30T02:13:50;16.80;91.20
46720;DHT22;32452;51.382;-0.002;2023-07-30T02:16:36;16.80;91.10
46720;DHT22;32452;51.382;-0.002;2023-07-30T02:19:21;16.90;91.10
46720;DHT22;32452;51.382;-0.002;2023-07-30T02:22:07;16.90;91.10
46720;DHT22;32452;51.382;-0.002;2023-07-30T02:24:52;16.90;91.10
46720;DHT22;32452;51.382;-0.002;2023-07-30T02:27:38;16.90;91.20
46720;DHT22;32452;51.382;-0.002;2023-07-30T02:30:23;16.90;91.20
46720;DHT22;32452;51.382;-0.002;2023-07-30T02:33:09;16.90;91.20
46720;DHT22;32452;51.382;-0.002;2023-07-30T02:35:54;16.80;91.20
46720;DHT22;32452;51.382;-0.002;2023-07-30T02:38:40;16.80;91.30
46720;DHT22;32452;51.382;-0.002;2023-07-30T02:41:25;16.80;91.30
46720;DHT22;32452;51.382;-0.002;2023-07-30T02:44:11;16.80;91.40
46720;DHT22;32452;51.382;-0.002;2023-07-30T02:46:56;16.80;91.40
46720;DHT22;32452;51.382;-0.002;2023-07-30T02:49:42;16.80;91.40
46720;DHT22;32452;51.382;-0.002;2023-07-30T02:52:28;16.80;91.40
46720;DHT22;32452;51.382;-0.002;2023-07-30T02:55:13;16.80;91.40
46720;DHT22;32452;51.382;-0.002;2023-07-30T02:57:59;16.80;91.40
46720;DHT22;32452;51.382;-0.002;2023-07-30T03:00:44;16.80;91.40
46720;DHT22;32452;51.382;-0.002;2023-07-30T03:03:30;16.90;91.50
46720;DHT22;32452;51.382;-0.002;2023-07-30T03:06:16;16.90;91.40
46720;DHT22;32452;51.382;-0.002;2023-07-30T03:09:02;16.90;91.40
46720;DHT22;32452;51.382;-0.002;2023-07-30T03:11:49;16.90;91.40
46720;DHT22;32452;51.382;-0.002;2023-07-30T03:14:35;16.90;91.40
46720;DHT22;32452;51.382;-0.002;2023-07-30T03:17:20;16.90;91.30
46720;DHT22;32452;51.382;-0.002;2023-07-30T03:20:07;16.90;91.30
46720;DHT22;32452;51.382;-0.002;2023-07-30T03:22:52;16.90;91.40
46720;DHT22;32452;51.382;-0.002;2023-07-30T03:25:38;16.90;91.40
46720;DHT22;32452;51.382;-0.002;2023-07-30T03:28:23;16.90;91.50
46720;DHT22;32452;51.382;-0.002;2023-07-30T03:31:09;16.80;91.50
46720;DHT22;32452;51.382;-0.002;2023-07-30T03:33:54;16.80;91.60
46720;DHT22;32452;51.382;-0.002;2023-07-30T03:36:40;16.70;91.70
46720;DHT22;32452;51.382;-0.002;2023-07-30T03:39:26;16.70;91.80
46720;DHT22;32452;51.382;-0.002;2023-07-30T03:42:11;16.70;91.90
46720;DHT22;32452;51.382;-0.002;2023-07-30T03:44:57;16.70;91.90
46720;DHT22;32452;51.382;-0.002;2023-07-30T03:47:42;16.70;92.00
46720;DHT22;32452;51.382;-0.002;2023-07-30T03:50:28;16.60;92.10
46720;DHT22;32452;51.382;-0.002;2023-07-30T03:53:14;16.60;92.10
46720;DHT22;32452;51.382;-0.002;2023-07-30T03:55:59;16.60;92.20
46720;DHT22;32452;51.382;-0.002;2023-07-30T03:58:45;16.60;92.20
46720;DHT22;32452;51.382;-0.002;2023-07-30T04:01:31;16.50;92.20
46720;DHT22;32452;51.382;-0.002;2023-07-30T04:04:16;16.50;92.20
46720;DHT22;32452;51.382;-0.002;2023-07-30T04:07:02;16.40;92.10
46720;DHT22;32452;51.382;-0.002;2023-07-30T04:09:48;16.40;92.20
46720;DHT22;32452;51.382;-0.002;2023-07-30T04:12:33;16.30;92.20
46720;DHT22;32452;51.382;-0.002;2023-07-30T04:15:19;16.30;92.20
46720;DHT22;32452;51.382;-0.002;2023-07-30T04:18:04;16.20;92.20
46720;DHT22;32452;51.382;-0.002;2023-07-30T04:20:50;16.20;92.30
46720;DHT22;32452;51.382;-0.002;2023-07-30T04:23:35;16.10;92.30
46720;DHT22;32452;51.382;-0.002;2023-07-30T04:26:21;16.10;92.40
46720;DHT22;32452;51.382;-0.002;2023-07-30T04:29:06;16.00;92.40
46720;DHT22;32452;51.382;-0.002;2023-07-30T04:31:52;16.00;92.50
46720;DHT22;32452;51.382;-0.002;2023-07-30T04:34:38;16.00;92.70
46720;DHT22;32452;51.382;-0.002;2023-07-30T04:37:23;16.00;92.80
46720;DHT22;32452;51.382;-0.002;2023-07-30T04:40:09;15.90;92.90
46720;DHT22;32452;51.382;-0.002;2023-07-30T04:42:55;15.90;93.10
46720;DHT22;32452;51.382;-0.002;2023-07-30T04:45:42;15.90;93.20
46720;DHT22;32452;51.382;-0.002;2023-07-30T04:48:27;15.90;93.30
46720;DHT22;32452;51.382;-0.002;2023-07-30T04:51:13;15.90;93.40
46720;DHT22;32452;51.382;-0.002;2023-07-30T04:53:59;15.90;93.50
46720;DHT22;32452;51.382;-0.002;2023-07-30T04:56:44;15.90;93.60
46720;DHT22;32452;51.382;-0.002;2023-07-30T04:59:30;15.90;93.80
46720;DHT22;32452;51.382;-0.002;2023-07-30T05:02:16;15.90;93.90
46720;DHT22;32452;51.382;-0.002;2023-07-30T05:05:01;15.90;94.10
46720;DHT22;32452;51.382;-0.002;2023-07-30T05:07:47;15.90;94.30
46720;DHT22;32452;51.382;-0.002;2023-07-30T05:10:32;15.90;94.40
46720;DHT22;32452;51.382;-0.002;2023-07-30T05:13:18;15.90;94.50
46720;DHT22;32452;51.382;-0.002;2023-07-30T05:16:03;15.90;94.50
46720;DHT22;32452;51.382;-0.002;2023-07-30T05:18:49;16.00;94.60
46720;DHT22;32452;51.382;-0.002;2023-07-30T05:21:35;16.00;94.60
46720;DHT22;32452;51.382;-0.002;2023-07-30T05:24:21;16.00;94.70
46720;DHT22;32452;51.382;-0.002;2023-07-30T05:27:06;16.00;94.80
46720;DHT22;32452;51.382;-0.002;2023-07-30T05:29:52;16.10;94.90
46720;DHT22;32452;51.382;-0.002;2023-07-30T05:32:38;16.10;95.00
46720;DHT22;32452;51.382;-0.002;2023-07-30T05:35:23;16.10;95.00
46720;DHT22;32452;51.382;-0.002;2023-07-30T05:38:10;16.20;95.10
46720;DHT22;32452;51.382;-0.002;2023-07-30T05:40:55;16.30;95.20
46720;DHT22;32452;51.382;-0.002;2023-07-30T05:43:41;16.50;95.30
46720;DHT22;32452;51.382;-0.002;2023-07-30T05:46:26;16.70;95.10
46720;DHT22;32452;51.382;-0.002;2023-07-30T05:49:12;17.00;95.30
46720;DHT22;32452;51.382;-0.002;2023-07-30T05:51:57;17.10;94.40
46720;DHT22;32452;51.382;-0.002;2023-07-30T05:54:43;17.10;94.00
46720;DHT22;32452;51.382;-0.002;2023-07-30T05:57:29;17.10;93.90
46720;DHT22;32452;51.382;-0.002;2023-07-30T06:00:15;17.10;93.90
46720;DHT22;32452;51.382;-0.002;2023-07-30T06:03:01;17.60;93.20
46720;DHT22;32452;51.382;-0.002;2023-07-30T06:05:46;17.60;92.50
46720;DHT22;32452;51.382;-0.002;2023-07-30T06:08:32;17.50;92.40
46720;DHT22;32452;51.382;-0.002;2023-07-30T06:11:18;17.30;92.50
46720;DHT22;32452;51.382;-0.002;2023-07-30T06:14:03;17.20;92.70
46720;DHT22;32452;51.382;-0.002;2023-07-30T06:16:49;17.10;92.90
46720;DHT22;32452;51.382;-0.002;2023-07-30T06:19:34;17.40;93.10
46720;DHT22;32452;51.382;-0.002;2023-07-30T06:22:20;18.30;92.70
46720;DHT22;32452;51.382;-0.002;2023-07-30T06:25:06;19.00;91.30
46720;DHT22;32452;51.382;-0.002;2023-07-30T06:27:51;19.30;90.30
46720;DHT22;32452;51.382;-0.002;2023-07-30T06:30:37;19.10;90.00
46720;DHT22;32452;51.382;-0.002;2023-07-30T06:33:24;18.70;90.10
46720;DHT22;32452;51.382;-0.002;2023-07-30T06:36:11;18.40;90.30
46720;DHT22;32452;51.382;-0.002;2023-07-30T06:38:57;18.20;90.80
46720;DHT22;32452;51.382;-0.002;2023-07-30T06:41:42;18.00;91.10
46720;DHT22;32452;51.382;-0.002;2023-07-30T06:44:28;18.00;91.40
46720;DHT22;32452;51.382;-0.002;2023-07-30T06:47:14;18.10;91.20
46720;DHT22;32452;51.382;-0.002;2023-07-30T06:49:59;18.20;91.20
46720;DHT22;32452;51.382;-0.002;2023-07-30T06:52:45;18.20;91.20
46720;DHT22;32452;51.382;-0.002;2023-07-30T06:55:30;18.20;91.30
46720;DHT22;32452;51.382;-0.002;2023-07-30T06:58:16;18.20;91.40
46720;DHT22;32452;51.382;-0.002;2023-07-30T07:01:02;18.20;91.40
46720;DHT22;32452;51.382;-0.002;2023-07-30T07:03:47;18.30;91.40
46720;DHT22;32452;51.382;-0.002;2023-07-30T07:06:33;18.50;91.20
46720;DHT22;32452;51.382;-0.002;2023-07-30T07:09:19;18.50;91.00
46720;DHT22;32452;51.382;-0.002;2023-07-30T07:12:05;18.70;90.80
46720;DHT22;32452;51.382;-0.002;2023-07-30T07:14:50;18.90;90.50
46720;DHT22;32452;51.382;-0.002;2023-07-30T07:17:36;19.00;90.10
46720;DHT22;32452;51.382;-0.002;2023-07-30T07:20:22;19.10;89.90
46720;DHT22;32452;51.382;-0.002;2023-07-30T07:23:07;19.30;89.30
46720;DHT22;32452;51.382;-0.002;2023-07-30T07:25:56;19.60;88.40
46720;DHT22;32452;51.382;-0.002;2023-07-30T07:28:41;20.40;86.80
46720;DHT22;32452;51.382;-0.002;2023-07-30T07:31:27;21.50;83.50
46720;DHT22;32452;51.382;-0.002;2023-07-30T07:34:13;22.30;79.60
46720;DHT22;32452;51.382;-0.002;2023-07-30T07:36:58;22.80;76.30
46720;DHT22;32452;51.382;-0.002;2023-07-30T07:39:45;23.40;74.00
46720;DHT22;32452;51.382;-0.002;2023-07-30T07:42:31;23.90;71.60
46720;DHT22;32452;51.382;-0.002;2023-07-30T07:45:16;24.40;68.60
46720;DHT22;32452;51.382;-0.002;2023-07-30T07:48:02;24.70;66.50
46720;DHT22;32452;51.382;-0.002;2023-07-30T07:50:48;25.10;65.40
46720;DHT22;32452;51.382;-0.002;2023-07-30T07:53:34;25.40;63.30
46720;DHT22;32452;51.382;-0.002;2023-07-30T07:56:19;25.90;61.20
46720;DHT22;32452;51.382;-0.002;2023-07-30T07:59:05;26.00;59.80
46720;DHT22;32452;51.382;-0.002;2023-07-30T08:01:50;26.20;59.10
46720;DHT22;32452;51.382;-0.002;2023-07-30T08:04:36;26.40;57.70
46720;DHT22;32452;51.382;-0.002;2023-07-30T08:07:22;26.60;55.80
46720;DHT22;32452;51.382;-0.002;2023-07-30T08:10:07;26.40;54.00
46720;DHT22;32452;51.382;-0.002;2023-07-30T08:12:53;26.30;54.30
46720;DHT22;32452;51.382;-0.002;2023-07-30T08:15:39;26.20;52.80
46720;DHT22;32452;51.382;-0.002;2023-07-30T08:18:25;26.20;52.70
46720;DHT22;32452;51.382;-0.002;2023-07-30T08:21:11;26.30;52.60
46720;DHT22;32452;51.382;-0.002;2023-07-30T08:23:56;26.50;51.70
46720;DHT22;32452;51.382;-0.002;2023-07-30T08:26:42;26.50;51.20
46720;DHT22;32452;51.382;-0.002;2023-07-30T08:29:27;26.70;50.70
46720;DHT22;32452;51.382;-0.002;2023-07-30T08:32:13;26.70;50.70
46720;DHT22;32452;51.382;-0.002;2023-07-30T08:34:58;26.30;50.40
46720;DHT22;32452;51.382;-0.002;2023-07-30T08:37:44;26.10;51.10
46720;DHT22;32452;51.382;-0.002;2023-07-30T08:40:30;26.10;50.90
46720;DHT22;32452;51.382;-0.002;2023-07-30T08:43:18;26.20;50.70
46720;DHT22;32452;51.382;-0.002;2023-07-30T08:46:03;26.30;50.20
46720;DHT22;32452;51.382;-0.002;2023-07-30T08:48:49;26.00;49.80
46720;DHT22;32452;51.382;-0.002;2023-07-30T08:51:36;25.70;50.00
46720;DHT22;32452;51.382;-0.002;2023-07-30T08:54:27;25.40;50.60
46720;DHT22;32452;51.382;-0.002;2023-07-30T08:57:17;25.10;51.10
46720;DHT22;32452;51.382;-0.002;2023-07-30T09:00:06;25.40;51.40
46720;DHT22;32452;51.382;-0.002;2023-07-30T09:02:59;25.80;50.80
46720;DHT22;32452;51.382;-0.002;2023-07-30T09:05:44;26.30;50.40
46720;DHT22;32452;51.382;-0.002;2023-07-30T09:08:30;26.70;49.60
46720;DHT22;32452;51.382;-0.002;2023-07-30T09:11:17;27.10;48.90
46720;DHT22;32452;51.382;-0.002;2023-07-30T09:14:02;27.40;48.70
46720;DHT22;32452;51.382;-0.002;2023-07-30T09:16:48;27.60;48.70
46720;DHT22;32452;51.382;-0.002;2023-07-30T09:19:36;27.60;48.00
46720;DHT22;32452;51.382;-0.002;2023-07-30T09:22:29;27.10;48.10
46720;DHT22;32452;51.382;-0.002;2023-07-30T09:25:18;26.70;48.10
46720;DHT22;32452;51.382;-0.002;2023-07-30T09:28:06;26.50;48.10
46720;DHT22;32452;51.382;-0.002;2023-07-30T09:31:00;26.80;48.00
46720;DHT22;32452;51.382;-0.002;2023-07-30T09:34:04;27.10;47.50
46720;DHT22;32452;51.382;-0.002;2023-07-30T09:36:54;27.40;47.00
46720;DHT22;32452;51.382;-0.002;2023-07-30T09:39:39;27.60;46.10
46720;DHT22;32452;51.382;-0.002;2023-07-30T09:42:28;27.80;45.60
46720;DHT22;32452;51.382;-0.002;2023-07-30T09:45:23;28.00;45.00
46720;DHT22;32452;51.382;-0.002;2023-07-30T09:48:09;28.30;44.20
46720;DHT22;32452;51.382;-0.002;2023-07-30T09:50:58;28.50;44.50
46720;DHT22;32452;51.382;-0.002;2023-07-30T09:53:44;28.80;43.70
46720;DHT22;32452;51.382;-0.002;2023-07-30T09:56:30;29.00;43.30
46720;DHT22;32452;51.382;-0.002;2023-07-30T09:59:15;29.10;42.70
46720;DHT22;32452;51.382;-0.002;2023-07-30T10:02:04;29.10;43.00
46720;DHT22;32452;51.382;-0.002;2023-07-30T10:04:51;28.80;42.40
46720;DHT22;32452;51.382;-0.002;2023-07-30T10:07:42;28.20;43.10
46720;DHT22;32452;51.382;-0.002;2023-07-30T10:10:31;27.60;44.00
46720;DHT22;32452;51.382;-0.002;2023-07-30T10:13:17;26.80;45.00
46720;DHT22;32452;51.382;-0.002;2023-07-30T10:16:09;26.10;46.10
46720;DHT22;32452;51.382;-0.002;2023-07-30T10:18:57;25.50;47.30
46720;DHT22;32452;51.382;-0.002;2023-07-30T10:21:43;25.00;48.30
46720;DHT22;32452;51.382;-0.002;2023-07-30T10:24:30;24.60;49.50
46720;DHT22;32452;51.382;-0.002;2023-07-30T10:27:23;24.30;50.90
46720;DHT22;32452;51.382;-0.002;2023-07-30T10:30:11;24.00;52.40
46720;DHT22;32452;51.382;-0.002;2023-07-30T10:35:46;23.60;53.90
46720;DHT22;32452;51.382;-0.002;2023-07-30T10:38:34;23.50;54.30
46720;DHT22;32452;51.382;-0.002;2023-07-30T10:41:21;23.30;54.80
46720;DHT22;32452;51.382;-0.002;2023-07-30T10:44:06;23.20;55.00
46720;DHT22;32452;51.382;-0.002;2023-07-30T10:46:56;23.10;55.20
46720;DHT22;32452;51.382;-0.002;2023-07-30T10:49:42;22.90;55.70
46720;DHT22;32452;51.382;-0.002;2023-07-30T10:52:31;22.80;56.30
46720;DHT22;32452;51.382;-0.002;2023-07-30T10:55:17;22.70;56.80
46720;DHT22;32452;51.382;-0.002;2023-07-30T10:58:03;22.60;57.10
46720;DHT22;32452;51.382;-0.002;2023-07-30T11:00:49;22.60;57.80
46720;DHT22;32452;51.382;-0.002;2023-07-30T11:03:35;22.50;58.10
46720;DHT22;32452;51.382;-0.002;2023-07-30T11:06:26;22.60;58.30
46720;DHT22;32452;51.382;-0.002;2023-07-30T11:09:23;22.70;58.80
46720;DHT22;32452;51.382;-0.002;2023-07-30T11:12:09;22.70;58.80
46720;DHT22;32452;51.382;-0.002;2023-07-30T11:15:05;22.70;58.90
46720;DHT22;32452;51.382;-0.002;2023-07-30T11:17:53;22.70;59.40
46720;DHT22;32452;51.382;-0.002;2023-07-30T11:20:39;22.70;59.50
46720;DHT22;32452;51.382;-0.002;2023-07-30T11:23:25;22.70;59.70
46720;DHT22;32452;51.382;-0.002;2023-07-30T11:26:17;22.70;60.00
46720;DHT22;32452;51.382;-0.002;2023-07-30T11:29:14;22.50;60.50
46720;DHT22;32452;51.382;-0.002;2023-07-30T11:32:00;22.40;61.30
46720;DHT22;32452;51.382;-0.002;2023-07-30T11:34:48;22.30;62.10
46720;DHT22;32452;51.382;-0.002;2023-07-30T11:37:34;22.20;63.00
46720;DHT22;32452;51.382;-0.002;2023-07-30T11:40:23;22.10;64.20
46720;DHT22;32452;51.382;-0.002;2023-07-30T11:43:09;22.00;65.10
46720;DHT22;32452;51.382;-0.002;2023-07-30T11:46:17;22.00;65.90
46720;DHT22;32452;51.382;-0.002;2023-07-30T11:49:15;22.00;66.70
46720;DHT22;32452;51.382;-0.002;2023-07-30T11:52:07;21.90;67.70
46720;DHT22;32452;51.382;-0.002;2023-07-30T11:55:03;21.80;68.50
46720;DHT22;32452;51.382;-0.002;2023-07-30T11:57:50;21.70;69.40
46720;DHT22;32452;51.382;-0.002;2023-07-30T12:00:36;21.50;70.20
46720;DHT22;32452;51.382;-0.002;2023-07-30T12:03:23;21.30;71.50
46720;DHT22;32452;51.382;-0.002;2023-07-30T12:06:12;21.10;72.70
46720;DHT22;32452;51.382;-0.002;2023-07-30T12:08:58;21.00;73.70
46720;DHT22;32452;51.382;-0.002;2023-07-30T12:12:01;21.10;74.70
46720;DHT22;32452;51.382;-0.002;2023-07-30T12:17:32;21.20;75.70
46720;DHT22;32452;51.382;-0.002;2023-07-30T12:20:17;21.30;76.10
46720;DHT22;32452;51.382;-0.002;2023-07-30T12:23:04;21.30;76.20
46720;DHT22;32452;51.382;-0.002;2023-07-30T12:25:51;21.40;76.40
46720;DHT22;32452;51.382;-0.002;2023-07-30T12:28:36;21.40;76.50
46720;DHT22;32452;51.382;-0.002;2023-07-30T12:31:22;21.50;77.50
46720;DHT22;32452;51.382;-0.002;2023-07-30T12:34:07;21.60;76.80
46720;DHT22;32452;51.382;-0.002;2023-07-30T12:36:53;21.60;77.00
46720;DHT22;32452;51.382;-0.002;2023-07-30T12:39:38;21.60;77.10
46720;DHT22;32452;51.382;-0.002;2023-07-30T12:42:24;21.50;77.50
46720;DHT22;32452;51.382;-0.002;2023-07-30T12:45:10;21.50;78.30
46720;DHT22;32452;51.382;-0.002;2023-07-30T12:47:55;21.50;79.30
46720;DHT22;32452;51.382;-0.002;2023-07-30T12:50:41;21.40;80.10
46720;DHT22;32452;51.382;-0.002;2023-07-30T12:53:26;21.30;81.10
46720;DHT22;32452;51.382;-0.002;2023-07-30T12:56:12;21.30;81.80
46720;DHT22;32452;51.382;-0.002;2023-07-30T12:59:00;21.20;82.40
46720;DHT22;32452;51.382;-0.002;2023-07-30T13:01:45;21.10;83.10
46720;DHT22;32452;51.382;-0.002;2023-07-30T13:04:33;21.10;83.70
46720;DHT22;32452;51.382;-0.002;2023-07-30T13:07:18;21.10;84.20
46720;DHT22;32452;51.382;-0.002;2023-07-30T13:10:08;21.10;84.80
46720;DHT22;32452;51.382;-0.002;2023-07-30T13:12:54;21.20;85.50
46720;DHT22;32452;51.382;-0.002;2023-07-30T13:15:40;21.10;85.50
46720;DHT22;32452;51.382;-0.002;2023-07-30T13:18:25;21.10;86.50
46720;DHT22;32452;51.382;-0.002;2023-07-30T13:21:11;21.10;86.20
46720;DHT22;32452;51.382;-0.002;2023-07-30T13:23:57;21.10;86.30
46720;DHT22;32452;51.382;-0.002;2023-07-30T13:26:43;21.10;86.50
46720;DHT22;32452;51.382;-0.002;2023-07-30T13:29:28;21.00;86.90
46720;DHT22;32452;51.382;-0.002;2023-07-30T13:32:14;21.00;87.20
46720;DHT22;32452;51.382;-0.002;2023-07-30T13:34:59;21.00;88.00
46720;DHT22;32452;51.382;-0.002;2023-07-30T13:37:45;21.00;88.80
46720;DHT22;32452;51.382;-0.002;2023-07-30T13:40:30;21.10;89.30
46720;DHT22;32452;51.382;-0.002;2023-07-30T13:43:16;21.20;89.60
46720;DHT22;32452;51.382;-0.002;2023-07-30T13:46:02;21.20;89.30
46720;DHT22;32452;51.382;-0.002;2023-07-30T13:48:47;21.20;89.70
46720;DHT22;32452;51.382;-0.002;2023-07-30T13:51:33;21.20;90.10
46720;DHT22;32452;51.382;-0.002;2023-07-30T13:54:18;21.10;90.30
46720;DHT22;32452;51.382;-0.002;2023-07-30T13:57:04;21.00;90.60
46720;DHT22;32452;51.382;-0.002;2023-07-30T13:59:53;21.00;90.90
46720;DHT22;32452;51.382;-0.002;2023-07-30T14:02:39;20.90;91.10
46720;DHT22;32452;51.382;-0.002;2023-07-30T14:05:24;20.90;91.70
46720;DHT22;32452;51.382;-0.002;2023-07-30T14:08:10;20.90;92.20
46720;DHT22;32452;51.382;-0.002;2023-07-30T14:10:57;21.00;92.30
46720;DHT22;32452;51.382;-0.002;2023-07-30T14:13:44;21.00;92.30
46720;DHT22;32452;51.382;-0.002;2023-07-30T14:16:29;21.00;92.40
46720;DHT22;32452;51.382;-0.002;2023-07-30T14:19:15;20.90;92.80
46720;DHT22;32452;51.382;-0.002;2023-07-30T14:22:00;20.80;93.30
46720;DHT22;32452;51.382;-0.002;2023-07-30T14:24:46;20.60;93.90
46720;DHT22;32452;51.382;-0.002;2023-07-30T14:27:32;20.50;94.70
46720;DHT22;32452;51.382;-0.002;2023-07-30T14:30:17;20.50;95.50
46720;DHT22;32452;51.382;-0.002;2023-07-30T14:33:03;20.40;96.00
46720;DHT22;32452;51.382;-0.002;2023-07-30T14:35:49;20.40;96.40
46720;DHT22;32452;51.382;-0.002;2023-07-30T14:38:34;20.40;97.00
46720;DHT22;32452;51.382;-0.002;2023-07-30T14:41:20;20.40;97.80
46720;DHT22;32452;51.382;-0.002;2023-07-30T14:44:05;20.30;98.50
46720;DHT22;32452;51.382;-0.002;2023-07-30T14:46:51;20.30;99.10
46720;DHT22;32452;51.382;-0.002;2023-07-30T14:49:37;20.30;99.70
46720;DHT22;32452;51.382;-0.002;2023-07-30T14:52:24;20.30;99.90
46720;DHT22;32452;51.382;-0.002;2023-07-30T14:55:10;20.40;99.90
46720;DHT22;32452;51.382;-0.002;2023-07-30T14:57:56;20.40;99.90
46720;DHT22;32452;51.382;-0.002;2023-07-30T15:00:42;20.40;99.90
46720;DHT22;32452;51.382;-0.002;2023-07-30T15:03:29;20.40;99.90
46720;DHT22;32452;51.382;-0.002;2023-07-30T15:06:14;20.40;99.90
46720;DHT22;32452;51.382;-0.002;2023-07-30T15:09:00;20.40;99.90
46720;DHT22;32452;51.382;-0.002;2023-07-30T15:11:46;20.40;99.90
46720;DHT22;32452;51.382;-0.002;2023-07-30T15:14:32;20.40;99.90
46720;DHT22;32452;51.382;-0.002;2023-07-30T15:17:17;20.40;99.90
46720;DHT22;32452;51.382;-0.002;2023-07-30T15:20:04;20.40;99.90
46720;DHT22;32452;51.382;-0.002;2023-07-30T15:22:49;20.40;99.90
46720;DHT22;32452;51.382;-0.002;2023-07-30T15:25:36;20.40;99.90
46720;DHT22;32452;51.382;-0.002;2023-07-30T15:28:23;20.30;99.90
46720;DHT22;32452;51.382;-0.002;2023-07-30T15:31:08;20.30;99.90
46720;DHT22;32452;51.382;-0.002;2023-07-30T15:33:54;20.30;99.90
46720;DHT22;32452;51.382;-0.002;2023-07-30T15:36:40;20.40;99.90
46720;DHT22;32452;51.382;-0.002;2023-07-30T15:39:26;20.30;99.90
46720;DHT22;32452;51.382;-0.002;2023-07-30T15:42:11;20.30;99.90
46720;DHT22;32452;51.382;-0.002;2023-07-30T15:44:57;20.20;99.90
46720;DHT22;32452;51.382;-0.002;2023-07-30T15:47:43;20.20;99.90
46720;DHT22;32452;51.382;-0.002;2023-07-30T15:50:28;20.10;99.90
46720;DHT22;32452;51.382;-0.002;2023-07-30T15:53:14;19.90;99.90
46720;DHT22;32452;51.382;-0.002;2023-07-30T15:56:00;19.80;99.90
46720;DHT22;32452;51.382;-0.002;2023-07-30T15:58:48;19.70;99.90
46720;DHT22;32452;51.382;-0.002;2023-07-30T16:01:34;19.60;99.90
46720;DHT22;32452;51.382;-0.002;2023-07-30T16:04:20;19.60;99.90
46720;DHT22;32452;51.382;-0.002;2023-07-30T16:07:06;19.60;99.90
46720;DHT22;32452;51.382;-0.002;2023-07-30T16:09:52;19.60;99.90
46720;DHT22;32452;51.382;-0.002;2023-07-30T16:12:37;19.60;99.90
46720;DHT22;32452;51.382;-0.002;2023-07-30T16:15:27;19.60;99.90
46720;DHT22;32452;51.382;-0.002;2023-07-30T16:18:13;19.60;99.90
46720;DHT22;32452;51.382;-0.002;2023-07-30T16:21:03;19.60;99.90
46720;DHT22;32452;51.382;-0.002;2023-07-30T16:23:49;19.50;99.90
46720;DHT22;32452;51.382;-0.002;2023-07-30T16:26:35;19.50;99.90
46720;DHT22;32452;51.382;-0.002;2023-07-30T16:29:21;19.50;99.90
46720;DHT22;32452;51.382;-0.002;2023-07-30T16:32:06;19.50;99.90
46720;DHT22;32452;51.382;-0.002;2023-07-30T16:34:52;19.40;99.90
46720;DHT22;32452;51.382;-0.002;2023-07-30T16:37:37;19.40;99.90
46720;DHT22;32452;51.382;-0.002;2023-07-30T16:40:23;19.50;99.90
46720;DHT22;32452;51.382;-0.002;2023-07-30T16:43:10;19.40;99.90
46720;DHT22;32452;51.382;-0.002;2023-07-30T16:45:59;19.40;99.90
46720;DHT22;32452;51.382;-0.002;2023-07-30T16:48:45;19.40;99.90
46720;DHT22;32452;51.382;-0.002;2023-07-30T16:51:31;19.40;99.90
46720;DHT22;32452;51.382;-0.002;2023-07-30T16:54:17;19.40;99.90
46720;DHT22;32452;51.382;-0.002;2023-07-30T16:57:02;19.40;99.90
46720;DHT22;32452;51.382;-0.002;2023-07-30T16:59:48;19.30;99.90
46720;DHT22;32452;51.382;-0.002;2023-07-30T17:02:34;19.30;99.90
46720;DHT22;32452;51.382;-0.002;2023-07-30T17:05:19;19.20;99.90
46720;DHT22;32452;51.382;-0.002;2023-07-30T17:08:05;19.20;99.90
46720;DHT22;32452;51.382;-0.002;2023-07-30T17:10:53;19.20;99.90
46720;DHT22;32452;51.382;-0.002;2023-07-30T17:13:40;19.10;99.90
46720;DHT22;32452;51.382;-0.002;2023-07-30T17:16:25;19.10;99.90
46720;DHT22;32452;51.382;-0.002;2023-07-30T17:19:11;19.10;99.90